Time;durP1;ratioP1;P1;durP2;ratioP2;P2;SDS_P1;SDS_P2;PMS_P1;PMS_P2;Temp;Humidity;BMP_temperature;BMP_pressure;BME280_temperature;BME280_humidity;BME280_pressure;Samples;Min_cycle;Max_cycle;Signal;HPM_P1;HPM_P2
2021/01/10 00:01:16;;;;;;;46.97;15.77;;;;;;;;;;5057651;28;20021;-63
2021/01/10 00:03:41;;;;;;;25.13;10.57;;;;;;;;;;5057501;28;20388;-63
2021/01/10 00:06:10;;;;;;;38.83;13.63;;;;;;;;;;5059962;28;20492;-63
2021/01/10 00:08:35;;;;;;;20.00;8.70;;;;;;;;;;5055904;28;20559;-63
2021/01/10 00:11:00;;;;;;;32.93;12.00;;;;;;;;;;5059490;28;20021;-63
2021/01/10 00:13:25;;;;;;;41.93;14.50;;;;;;;;;;5060438;28;20069;-63
2021/01/10 00:15:51;;;;;;;36.27;12.27;;;;;;;;;;5055975;28;20115;-63
2021/01/10 00:18:16;;;;;;;30.43;12.13;;;;;;;;;;5057915;28;20013;-63
2021/01/10 00:20:41;;;;;;;27.30;10.47;;;;;;;;;;5050773;28;20046;-63
2021/01/10 00:23:06;;;;;;;53.17;17.63;;;;;;;;;;5056891;28;20017;-63
2021/01/10 00:25:32;;;;;;;39.50;13.63;;;;;;;;;;5060346;28;20226;-63
2021/01/10 00:27:57;;;;;;;39.70;13.87;;;;;;;;;;5065739;28;20047;-62
2021/01/10 00:30:22;;;;;;;39.80;14.93;;;;;;;;;;5051293;28;20494;-62
2021/01/10 00:32:51;;;;;;;38.67;15.40;;;;;;;;;;5058010;28;20021;-62
2021/01/10 00:35:17;;;;;;;34.40;13.13;;;;;;;;;;5055344;28;20028;-61
2021/01/10 00:37:52;;;;;;;35.63;14.37;;;;;;;;;;5058713;28;20050;-62
2021/01/10 00:40:18;;;;;;;37.63;13.95;;;;;;;;;;5054893;28;20028;-62
2021/01/10 00:42:43;;;;;;;42.43;14.77;;;;;;;;;;5062328;28;20032;-62
2021/01/10 00:45:09;;;;;;;31.33;11.63;;;;;;;;;;5075924;28;20024;-62
2021/01/10 00:47:34;;;;;;;36.93;14.07;;;;;;;;;;5057183;28;20387;-63
2021/01/10 00:50:00;;;;;;;29.50;11.70;;;;;;;;;;5058779;28;20017;-62
2021/01/10 00:52:29;;;;;;;31.17;12.70;;;;;;;;;;5061210;28;20126;-62
2021/01/10 00:54:54;;;;;;;31.90;12.03;;;;;;;;;;5067438;28;20479;-63
2021/01/10 00:57:19;;;;;;;35.23;13.83;;;;;;;;;;5062570;28;20032;-62
2021/01/10 00:59:44;;;;;;;36.07;13.57;;;;;;;;;;5062340;28;20013;-63
2021/01/10 01:02:13;;;;;;;40.43;15.70;;;;;;;;;;5060532;28;20476;-63
2021/01/10 01:04:38;;;;;;;36.23;15.03;;;;;;;;;;5058420;28;20082;-64
2021/01/10 01:07:03;;;;;;;34.00;14.13;;;;;;;;;;5056933;28;20028;-64
2021/01/10 01:09:29;;;;;;;37.00;14.17;;;;;;;;;;5059916;28;20020;-64
2021/01/10 01:11:54;;;;;;;31.77;14.07;;;;;;;;;;5066264;28;20094;-63
2021/01/10 01:14:19;;;;;;;33.97;14.27;;;;;;;;;;5061949;28;20028;-63
2021/01/10 01:16:44;;;;;;;28.33;11.37;;;;;;;;;;5069532;28;20384;-63
2021/01/10 01:19:10;;;;;;;27.73;12.37;;;;;;;;;;5056887;28;20013;-64
2021/01/10 01:21:35;;;;;;;32.30;12.23;;;;;;;;;;5064572;28;20038;-63
2021/01/10 01:24:00;;;;;;;33.93;13.43;;;;;;;;;;5064074;28;20052;-64
2021/01/10 01:26:26;;;;;;;32.50;12.50;;;;;;;;;;5062488;28;20360;-63
2021/01/10 01:28:51;;;;;;;29.80;13.10;;;;;;;;;;5069100;28;20208;-63
2021/01/10 01:31:18;;;;;;;29.80;12.67;;;;;;;;;;5067289;28;20107;-64
2021/01/10 01:33:45;;;;;;;29.57;12.23;;;;;;;;;;5054925;28;20025;-64
2021/01/10 01:36:11;;;;;;;31.23;13.10;;;;;;;;;;5053224;28;20032;-64
2021/01/10 01:38:40;;;;;;;30.00;13.10;;;;;;;;;;5070150;28;20024;-64
2021/01/10 01:41:08;;;;;;;32.67;13.67;;;;;;;;;;5061928;28;20025;-64
2021/01/10 01:43:34;;;;;;;34.13;14.00;;;;;;;;;;5065189;28;20419;-63
2021/01/10 01:46:00;;;;;;;29.93;13.47;;;;;;;;;;5068938;28;20043;-63
2021/01/10 01:48:25;;;;;;;33.57;13.13;;;;;;;;;;5069259;28;20474;-63
2021/01/10 01:50:50;;;;;;;26.03;11.90;;;;;;;;;;5065278;28;20036;-64
2021/01/10 01:53:15;;;;;;;29.33;13.03;;;;;;;;;;5063457;28;20025;-64
2021/01/10 01:55:42;;;;;;;32.03;14.03;;;;;;;;;;5053421;28;20017;-64
2021/01/10 01:58:07;;;;;;;33.33;14.10;;;;;;;;;;5064054;28;20487;-64
2021/01/10 02:00:32;;;;;;;29.60;14.07;;;;;;;;;;5056169;28;20016;-64
2021/01/10 02:02:57;;;;;;;32.73;13.73;;;;;;;;;;5071580;28;20025;-63
2021/01/10 02:05:24;;;;;;;29.70;13.50;;;;;;;;;;5078289;28;20028;-64
2021/01/10 02:07:56;;;;;;;28.63;14.17;;;;;;;;;;5074338;28;20484;-62
2021/01/10 02:10:24;;;;;;;29.93;13.73;;;;;;;;;;5061072;28;20039;-63
2021/01/10 02:12:53;;;;;;;28.13;12.47;;;;;;;;;;5065758;28;20030;-64
2021/01/10 02:15:23;;;;;;;30.30;12.87;;;;;;;;;;5065379;28;20021;-63
2021/01/10 02:17:49;;;;;;;28.70;12.87;;;;;;;;;;5054540;28;20029;-63
2021/01/10 02:20:16;;;;;;;34.17;14.90;;;;;;;;;;5052327;28;20083;-63
2021/01/10 02:22:53;;;;;;;32.83;14.40;;;;;;;;;;5068806;28;20102;-63
2021/01/10 02:25:19;;;;;;;30.33;12.47;;;;;;;;;;5060071;28;20052;-62
2021/01/10 02:27:44;;;;;;;30.13;12.40;;;;;;;;;;5094883;28;20368;-64
2021/01/10 02:30:11;;;;;;;28.10;13.00;;;;;;;;;;5073248;28;20047;-64
2021/01/10 02:32:38;;;;;;;28.77;12.70;;;;;;;;;;5065231;28;20555;-64
2021/01/10 02:35:04;;;;;;;28.27;12.17;;;;;;;;;;5072297;28;20051;-64
2021/01/10 02:37:50;;;;;;;28.03;11.90;;;;;;;;;;5074889;28;20055;-64
2021/01/10 02:40:21;;;;;;;32.40;13.52;;;;;;;;;;5054632;28;20036;-64
2021/01/10 02:43:12;;;;;;;27.90;12.87;;;;;;;;;;5065611;28;20100;-63
2021/01/10 02:45:41;;;;;;;25.47;12.07;;;;;;;;;;5045043;28;20487;-63
2021/01/10 02:48:07;;;;;;;29.20;12.73;;;;;;;;;;5065853;28;20032;-64
2021/01/10 02:50:34;;;;;;;24.60;11.83;;;;;;;;;;5055738;28;20100;-63
2021/01/10 02:52:59;;;;;;;28.37;12.17;;;;;;;;;;5066571;28;20540;-63
2021/01/10 02:55:24;;;;;;;27.67;12.83;;;;;;;;;;5061815;28;20017;-63
2021/01/10 02:57:54;;;;;;;28.07;12.60;;;;;;;;;;5075024;28;20123;-64
2021/01/10 03:00:21;;;;;;;25.77;11.97;;;;;;;;;;5066711;28;20073;-63
2021/01/10 03:02:47;;;;;;;24.67;10.10;;;;;;;;;;5067468;28;20078;-64
2021/01/10 03:05:12;;;;;;;28.37;11.47;;;;;;;;;;5071899;28;20017;-64
2021/01/10 03:07:39;;;;;;;28.57;11.73;;;;;;;;;;5070135;28;20028;-63
2021/01/10 03:10:05;;;;;;;23.77;11.83;;;;;;;;;;5067028;28;20020;-64
2021/01/10 03:12:30;;;;;;;24.67;11.43;;;;;;;;;;5055875;28;20033;-64
2021/01/10 03:14:57;;;;;;;27.77;11.60;;;;;;;;;;5073357;28;20024;-65
2021/01/10 03:17:58;;;;;;;24.33;11.07;;;;;;;;;;5073723;28;20031;-63
2021/01/10 03:20:23;;;;;;;25.47;10.90;;;;;;;;;;5008610;28;20026;-64
2021/01/10 03:22:49;;;;;;;30.30;12.47;;;;;;;;;;5014066;28;20091;-63
2021/01/10 03:25:16;;;;;;;27.43;11.67;;;;;;;;;;5012417;28;20538;-63
2021/01/10 03:27:41;;;;;;;30.13;12.00;;;;;;;;;;5012530;28;20121;-63
2021/01/10 03:30:08;;;;;;;29.67;11.73;;;;;;;;;;5010212;28;20237;-63
2021/01/10 03:32:33;;;;;;;24.23;10.83;;;;;;;;;;5012017;28;20029;-63
2021/01/10 03:34:59;;;;;;;28.90;12.27;;;;;;;;;;5011861;28;20049;-63
2021/01/10 03:37:24;;;;;;;29.27;12.63;;;;;;;;;;5006944;28;20101;-63
2021/01/10 03:39:50;;;;;;;27.67;13.37;;;;;;;;;;5008173;28;20026;-64
2021/01/10 03:42:15;;;;;;;25.83;12.10;;;;;;;;;;5012172;28;20030;-63
2021/01/10 03:44:40;;;;;;;32.30;12.93;;;;;;;;;;4995201;28;20036;-63
2021/01/10 03:47:05;;;;;;;28.50;13.40;;;;;;;;;;5010882;28;20059;-63
2021/01/10 03:49:31;;;;;;;32.97;14.60;;;;;;;;;;4991799;28;20911;-63
2021/01/10 03:51:56;;;;;;;28.53;12.73;;;;;;;;;;5011873;28;20025;-63
2021/01/10 03:54:22;;;;;;;31.40;12.70;;;;;;;;;;5024610;28;20503;-63
2021/01/10 03:56:47;;;;;;;30.90;13.73;;;;;;;;;;5064166;28;20019;-63
2021/01/10 03:59:12;;;;;;;31.53;13.30;;;;;;;;;;5065852;28;20354;-63
2021/01/10 04:01:38;;;;;;;31.77;13.43;;;;;;;;;;5073874;28;20035;-63
2021/01/10 04:04:03;;;;;;;32.27;14.30;;;;;;;;;;5071735;28;20012;-63
2021/01/10 04:06:29;;;;;;;32.17;14.17;;;;;;;;;;5072373;28;20025;-63
2021/01/10 04:08:54;;;;;;;29.90;13.17;;;;;;;;;;5068162;28;20032;-63
2021/01/10 04:11:20;;;;;;;38.40;15.17;;;;;;;;;;5057583;28;20074;-63
2021/01/10 04:13:45;;;;;;;34.20;15.57;;;;;;;;;;5064913;28;20021;-63
2021/01/10 04:16:12;;;;;;;34.00;14.60;;;;;;;;;;5077417;28;20024;-63
2021/01/10 04:18:37;;;;;;;32.40;14.03;;;;;;;;;;5075399;28;20108;-63
2021/01/10 04:21:02;;;;;;;34.77;15.20;;;;;;;;;;5070981;28;20077;-64
2021/01/10 04:23:27;;;;;;;24.93;10.90;;;;;;;;;;5070219;28;20140;-64
2021/01/10 04:25:52;;;;;;;35.77;15.07;;;;;;;;;;5068110;28;20024;-64
2021/01/10 04:28:18;;;;;;;36.97;14.70;;;;;;;;;;5070443;28;20364;-64
2021/01/10 04:30:43;;;;;;;32.27;13.70;;;;;;;;;;5054444;28;20032;-64
2021/01/10 04:33:08;;;;;;;38.77;15.43;;;;;;;;;;5064854;28;20035;-63
2021/01/10 04:35:33;;;;;;;31.67;13.50;;;;;;;;;;5056492;28;20050;-63
2021/01/10 04:37:58;;;;;;;32.00;11.97;;;;;;;;;;5071851;28;20017;-63
2021/01/10 04:40:24;;;;;;;30.97;12.27;;;;;;;;;;5053940;28;20017;-64
2021/01/10 04:42:49;;;;;;;33.80;14.73;;;;;;;;;;5060212;28;20020;-64
2021/01/10 04:45:15;;;;;;;35.50;13.43;;;;;;;;;;5071263;28;20032;-64
2021/01/10 04:47:41;;;;;;;32.20;13.93;;;;;;;;;;5071765;28;20027;-64
2021/01/10 04:50:07;;;;;;;37.87;14.77;;;;;;;;;;5069812;28;20023;-64
2021/01/10 04:52:33;;;;;;;30.57;11.17;;;;;;;;;;5070253;28;20504;-63
2021/01/10 04:55:00;;;;;;;32.63;14.13;;;;;;;;;;5063726;28;20037;-64
2021/01/10 04:57:26;;;;;;;37.40;14.43;;;;;;;;;;5070113;28;20024;-64
2021/01/10 04:59:53;;;;;;;32.03;13.80;;;;;;;;;;5055467;28;20029;-64
2021/01/10 05:02:23;;;;;;;31.13;13.73;;;;;;;;;;5072877;28;20364;-64
2021/01/10 05:04:48;;;;;;;33.57;13.70;;;;;;;;;;5066585;28;20099;-64
2021/01/10 05:07:14;;;;;;;33.57;14.87;;;;;;;;;;5072210;28;20048;-64
2021/01/10 05:09:39;;;;;;;34.23;14.70;;;;;;;;;;5068300;28;20020;-64
2021/01/10 05:12:04;;;;;;;35.70;14.90;;;;;;;;;;5070235;28;20061;-64
2021/01/10 05:14:30;;;;;;;33.47;13.67;;;;;;;;;;5063364;28;20028;-64
2021/01/10 05:16:59;;;;;;;33.40;14.00;;;;;;;;;;5051227;28;20472;-64
2021/01/10 05:19:25;;;;;;;29.40;13.73;;;;;;;;;;5054984;28;20116;-64
2021/01/10 05:21:50;;;;;;;29.50;12.97;;;;;;;;;;5065512;28;20032;-64
2021/01/10 05:24:16;;;;;;;25.97;13.20;;;;;;;;;;5066072;28;20403;-64
2021/01/10 05:26:42;;;;;;;27.70;12.57;;;;;;;;;;5059842;28;20435;-64
2021/01/10 05:29:08;;;;;;;29.97;13.00;;;;;;;;;;5066441;28;20111;-64
2021/01/10 05:31:33;;;;;;;30.00;13.53;;;;;;;;;;5072505;28;20104;-64
2021/01/10 05:33:58;;;;;;;30.40;12.93;;;;;;;;;;5081493;28;20024;-64
2021/01/10 05:36:25;;;;;;;28.07;12.97;;;;;;;;;;5078066;28;20533;-64
2021/01/10 05:38:50;;;;;;;26.67;12.80;;;;;;;;;;5068863;28;20017;-64
2021/01/10 05:41:15;;;;;;;28.37;13.20;;;;;;;;;;5067868;28;20032;-64
2021/01/10 05:43:55;;;;;;;30.00;13.40;;;;;;;;;;5073335;28;20066;-64
2021/01/10 05:46:21;;;;;;;29.67;13.43;;;;;;;;;;5074951;28;20383;-64
2021/01/10 05:48:46;;;;;;;27.30;12.70;;;;;;;;;;5073503;28;20016;-63
2021/01/10 05:51:11;;;;;;;26.37;12.67;;;;;;;;;;5088390;28;20486;-63
2021/01/10 05:53:40;;;;;;;27.60;13.13;;;;;;;;;;5072325;28;20078;-62
2021/01/10 05:56:05;;;;;;;26.93;12.67;;;;;;;;;;5061204;28;20027;-62
2021/01/10 05:58:31;;;;;;;26.23;12.47;;;;;;;;;;5065944;28;20017;-62
2021/01/10 06:00:59;;;;;;;26.80;12.10;;;;;;;;;;5089057;28;20004;-63
2021/01/10 06:03:28;;;;;;;27.73;12.60;;;;;;;;;;5078234;28;20020;-62
2021/01/10 06:05:54;;;;;;;29.93;13.90;;;;;;;;;;5073545;28;20032;-62
2021/01/10 06:08:45;;;;;;;29.37;13.63;;;;;;;;;;5077188;28;20027;-62
2021/01/10 06:11:24;;;;;;;30.00;12.60;;;;;;;;;;5068396;28;20033;-62
2021/01/10 06:13:51;;;;;;;27.87;12.70;;;;;;;;;;5083762;28;20028;-63
2021/01/10 06:16:16;;;;;;;30.00;14.50;;;;;;;;;;5077167;28;20107;-62
2021/01/10 06:18:46;;;;;;;31.87;13.67;;;;;;;;;;5068598;28;20108;-62
2021/01/10 06:21:21;;;;;;;30.60;14.17;;;;;;;;;;5074338;28;20028;-62
2021/01/10 06:23:48;;;;;;;31.73;14.88;;;;;;;;;;5066608;28;20458;-63
2021/01/10 06:26:16;;;;;;;31.73;13.87;;;;;;;;;;5062392;28;20479;-63
2021/01/10 06:28:44;;;;;;;30.83;14.77;;;;;;;;;;5071762;28;20046;-63
2021/01/10 06:31:11;;;;;;;33.67;15.13;;;;;;;;;;5078495;28;20025;-63
2021/01/10 06:33:40;;;;;;;31.70;14.13;;;;;;;;;;5076343;28;20023;-62
2021/01/10 06:36:05;;;;;;;29.13;13.27;;;;;;;;;;5063524;28;20086;-62
2021/01/10 06:38:35;;;;;;;28.57;13.73;;;;;;;;;;5071929;28;20056;-63
2021/01/10 06:41:18;;;;;;;28.80;12.10;;;;;;;;;;5062209;28;20019;-63
2021/01/10 06:43:44;;;;;;;29.47;12.83;;;;;;;;;;5071287;28;20020;-63
2021/01/10 06:46:10;;;;;;;27.37;12.87;;;;;;;;;;5071409;28;20025;-63
2021/01/10 06:48:36;;;;;;;34.33;14.23;;;;;;;;;;5075155;28;20322;-63
2021/01/10 06:51:02;;;;;;;37.90;16.43;;;;;;;;;;5062356;28;20021;-63
2021/01/10 06:53:27;;;;;;;34.47;16.37;;;;;;;;;;5062779;28;20027;-63
2021/01/10 06:55:52;;;;;;;39.97;16.37;;;;;;;;;;5059913;28;20017;-63
2021/01/10 06:58:17;;;;;;;34.93;15.43;;;;;;;;;;5069193;28;20017;-63
2021/01/10 07:00:55;;;;;;;41.20;17.20;;;;;;;;;;5071063;28;20028;-63
2021/01/10 07:03:21;;;;;;;35.93;16.00;;;;;;;;;;5073785;28;20756;-63
2021/01/10 07:05:55;;;;;;;41.17;16.77;;;;;;;;;;5078184;28;20030;-63
2021/01/10 07:08:37;;;;;;;37.88;15.68;;;;;;;;;;5077372;28;20503;-63
2021/01/10 07:11:21;;;;;;;35.13;15.13;;;;;;;;;;5067687;28;20071;-63
2021/01/10 07:13:47;;;;;;;41.50;17.63;;;;;;;;;;5073305;28;20062;-63
2021/01/10 07:16:22;;;;;;;36.17;15.57;;;;;;;;;;5073558;28;20025;-63
2021/01/10 07:18:50;;;;;;;42.88;17.23;;;;;;;;;;5068387;28;20166;-63
2021/01/10 07:21:28;;;;;;;39.17;18.07;;;;;;;;;;5067569;28;20498;-63
2021/01/10 07:23:53;;;;;;;35.20;15.73;;;;;;;;;;5057974;28;20048;-63
2021/01/10 07:26:38;;;;;;;38.37;17.27;;;;;;;;;;5057604;28;20170;-63
2021/01/10 07:29:03;;;;;;;33.00;14.10;;;;;;;;;;5059579;28;20032;-63
2021/01/10 07:31:28;;;;;;;37.53;16.57;;;;;;;;;;5073647;28;20502;-63
2021/01/10 07:34:09;;;;;;;34.40;15.47;;;;;;;;;;5071126;28;20028;-63
2021/01/10 07:36:47;;;;;;;33.73;15.13;;;;;;;;;;5063440;28;20025;-63
2021/01/10 07:39:12;;;;;;;37.27;16.60;;;;;;;;;;5060330;28;20024;-63
2021/01/10 07:41:38;;;;;;;38.73;16.00;;;;;;;;;;5061126;28;20031;-63
2021/01/10 07:44:03;;;;;;;37.40;16.03;;;;;;;;;;5069072;28;20027;-63
2021/01/10 07:46:47;;;;;;;35.43;16.17;;;;;;;;;;5061197;28;20078;-63
2021/01/10 07:49:13;;;;;;;36.33;16.83;;;;;;;;;;5056773;28;20074;-63
2021/01/10 07:51:44;;;;;;;37.47;15.67;;;;;;;;;;5059443;28;20467;-63
2021/01/10 07:54:09;;;;;;;31.13;14.80;;;;;;;;;;5062616;28;20029;-63
2021/01/10 07:56:34;;;;;;;32.57;15.30;;;;;;;;;;5062228;28;20387;-63
2021/01/10 07:59:13;;;;;;;32.77;15.97;;;;;;;;;;5052919;28;20052;-63
2021/01/10 08:01:47;;;;;;;35.40;15.63;;;;;;;;;;5060664;28;20040;-63
2021/01/10 08:04:29;;;;;;;29.23;13.85;;;;;;;;;;5067444;28;20029;-63
2021/01/10 08:06:55;;;;;;;32.77;16.47;;;;;;;;;;5064046;28;20086;-63
2021/01/10 08:09:22;;;;;;;33.23;15.33;;;;;;;;;;5060630;28;20024;-63
2021/01/10 08:11:56;;;;;;;31.27;14.50;;;;;;;;;;5061123;28;20017;-63
2021/01/10 08:14:21;;;;;;;30.77;14.57;;;;;;;;;;5061803;28;20020;-63
2021/01/10 08:16:47;;;;;;;29.13;13.73;;;;;;;;;;5057759;28;20494;-63
2021/01/10 08:19:12;;;;;;;32.53;14.43;;;;;;;;;;5053049;28;20028;-63
2021/01/10 08:21:37;;;;;;;28.03;13.70;;;;;;;;;;5063076;28;20017;-63
2021/01/10 08:24:05;;;;;;;28.27;14.33;;;;;;;;;;5058435;28;20465;-64
2021/01/10 08:26:36;;;;;;;25.53;12.30;;;;;;;;;;5059792;28;20028;-64
2021/01/10 08:29:06;;;;;;;28.73;14.43;;;;;;;;;;5056831;28;20167;-63
2021/01/10 08:31:31;;;;;;;25.80;13.27;;;;;;;;;;5064898;28;20016;-63
2021/01/10 08:34:00;;;;;;;29.20;14.53;;;;;;;;;;5069018;28;20024;-62
2021/01/10 08:36:26;;;;;;;28.10;13.40;;;;;;;;;;5054395;28;20017;-63
2021/01/10 08:38:54;;;;;;;28.87;13.47;;;;;;;;;;5057496;28;20239;-63
2021/01/10 08:41:20;;;;;;;26.53;13.03;;;;;;;;;;5057915;28;20077;-63
2021/01/10 08:43:46;;;;;;;26.30;13.97;;;;;;;;;;5061895;28;20023;-63
2021/01/10 08:46:12;;;;;;;26.23;13.33;;;;;;;;;;5068023;28;20055;-63
2021/01/10 08:48:37;;;;;;;28.80;14.17;;;;;;;;;;5051308;28;20078;-63
2021/01/10 08:51:02;;;;;;;29.87;14.33;;;;;;;;;;5063536;28;20058;-64
2021/01/10 08:53:38;;;;;;;27.83;13.83;;;;;;;;;;5067091;28;20486;-63
2021/01/10 08:56:12;;;;;;;26.63;12.97;;;;;;;;;;5066211;28;20083;-63
2021/01/10 08:58:37;;;;;;;29.40;14.50;;;;;;;;;;5056086;28;20016;-63
2021/01/10 09:01:02;;;;;;;32.77;15.30;;;;;;;;;;5065287;28;20032;-63
2021/01/10 09:03:28;;;;;;;24.13;11.93;;;;;;;;;;5068656;28;20017;-64
2021/01/10 09:05:54;;;;;;;28.33;14.03;;;;;;;;;;5052910;28;20101;-64
2021/01/10 09:08:42;;;;;;;26.27;13.60;;;;;;;;;;5051695;28;20068;-64
2021/01/10 09:11:12;;;;;;;28.00;14.20;;;;;;;;;;5061082;28;20028;-63
2021/01/10 09:13:39;;;;;;;32.63;16.10;;;;;;;;;;5059640;28;20468;-63
2021/01/10 09:16:06;;;;;;;32.20;15.43;;;;;;;;;;5059016;28;20034;-63
2021/01/10 09:18:35;;;;;;;28.70;13.90;;;;;;;;;;5065354;28;20415;-63
2021/01/10 09:21:02;;;;;;;31.10;14.80;;;;;;;;;;5069070;28;20016;-63
2021/01/10 09:23:28;;;;;;;28.67;13.47;;;;;;;;;;5051858;28;20017;-62
2021/01/10 09:25:53;;;;;;;31.17;15.23;;;;;;;;;;5055939;28;20035;-62
2021/01/10 09:28:19;;;;;;;32.37;16.67;;;;;;;;;;5060508;28;20515;-63
2021/01/10 09:30:55;;;;;;;34.33;17.13;;;;;;;;;;5061182;28;20463;-62
2021/01/10 09:33:21;;;;;;;27.87;14.70;;;;;;;;;;5065125;28;20095;-62
2021/01/10 09:35:47;;;;;;;30.50;17.03;;;;;;;;;;5069034;28;20028;-62
2021/01/10 09:38:20;;;;;;;21.23;12.57;;;;;;;;;;5069823;28;20013;-63
2021/01/10 09:41:04;;;;;;;23.73;13.00;;;;;;;;;;5053230;28;20411;-63
2021/01/10 09:43:43;;;;;;;21.67;11.63;;;;;;;;;;5068560;28;20367;-63
2021/01/10 09:46:26;;;;;;;25.70;13.00;;;;;;;;;;5071685;28;20029;-63
2021/01/10 09:48:53;;;;;;;27.00;14.43;;;;;;;;;;5055517;28;20036;-63
2021/01/10 09:51:18;;;;;;;25.97;14.50;;;;;;;;;;5068294;28;20021;-63
2021/01/10 09:53:47;;;;;;;23.93;12.63;;;;;;;;;;5059484;28;20023;-63
2021/01/10 09:56:13;;;;;;;25.63;13.17;;;;;;;;;;5066213;28;20052;-62
2021/01/10 09:58:39;;;;;;;26.07;13.77;;;;;;;;;;5062826;28;20052;-62
2021/01/10 10:01:08;;;;;;;22.97;12.97;;;;;;;;;;5071893;28;20106;-62
2021/01/10 10:03:33;;;;;;;25.17;12.20;;;;;;;;;;5055650;28;20017;-62
2021/01/10 10:05:59;;;;;;;24.03;12.63;;;;;;;;;;5068642;28;20025;-62
2021/01/10 10:08:24;;;;;;;27.53;13.43;;;;;;;;;;5062720;28;20028;-62
2021/01/10 10:10:50;;;;;;;23.17;12.73;;;;;;;;;;5067672;28;20035;-62
2021/01/10 10:13:22;;;;;;;22.73;13.00;;;;;;;;;;5062909;28;20048;-62
2021/01/10 10:15:53;;;;;;;21.63;12.37;;;;;;;;;;5061439;28;20029;-62
2021/01/10 10:18:19;;;;;;;21.53;12.03;;;;;;;;;;5069475;28;20379;-62
2021/01/10 10:20:45;;;;;;;22.63;12.73;;;;;;;;;;5055977;28;20463;-62
2021/01/10 10:23:12;;;;;;;18.38;10.65;;;;;;;;;;5067130;28;20027;-63
2021/01/10 10:25:38;;;;;;;17.77;10.65;;;;;;;;;;5056233;28;20049;-63
2021/01/10 10:28:04;;;;;;;13.50;9.02;;;;;;;;;;5056449;28;20071;-63
2021/01/10 10:30:30;;;;;;;13.73;7.70;;;;;;;;;;5070980;28;20016;-63
2021/01/10 10:32:55;;;;;;;12.73;8.40;;;;;;;;;;5071440;28;20480;-63
2021/01/10 10:35:21;;;;;;;11.25;6.93;;;;;;;;;;5066056;28;20368;-63
2021/01/10 10:37:50;;;;;;;11.38;7.15;;;;;;;;;;5072641;28;20108;-63
2021/01/10 10:40:15;;;;;;;12.82;8.35;;;;;;;;;;5066763;28;20021;-63
2021/01/10 10:42:41;;;;;;;9.65;7.28;;;;;;;;;;5072100;28;20020;-63
2021/01/10 10:45:07;;;;;;;11.43;8.23;;;;;;;;;;5062555;28;20439;-63
2021/01/10 10:47:32;;;;;;;12.57;8.82;;;;;;;;;;5054993;28;20348;-64
2021/01/10 10:49:57;;;;;;;13.20;10.07;;;;;;;;;;5057141;28;20024;-63
2021/01/10 10:52:23;;;;;;;13.98;10.35;;;;;;;;;;5052992;28;20043;-63
2021/01/10 10:54:48;;;;;;;9.07;6.68;;;;;;;;;;5057922;28;20140;-63
2021/01/10 10:57:13;;;;;;;11.05;8.48;;;;;;;;;;5068183;28;20063;-63
2021/01/10 10:59:39;;;;;;;11.57;9.57;;;;;;;;;;5061916;28;20024;-63
2021/01/10 11:02:04;;;;;;;14.73;9.23;;;;;;;;;;5061396;28;20123;-63
2021/01/10 11:04:30;;;;;;;13.02;10.27;;;;;;;;;;5057015;28;20642;-63
2021/01/10 11:06:55;;;;;;;11.27;9.15;;;;;;;;;;5059940;28;20029;-62
2021/01/10 11:09:20;;;;;;;12.30;9.40;;;;;;;;;;5069309;28;20119;-62
2021/01/10 11:11:47;;;;;;;12.23;9.07;;;;;;;;;;5065398;28;20089;-63
2021/01/10 11:14:13;;;;;;;10.73;7.88;;;;;;;;;;5069455;28;20104;-62
2021/01/10 11:16:40;;;;;;;9.60;6.93;;;;;;;;;;5054499;28;20443;-63
2021/01/10 11:19:06;;;;;;;8.85;7.07;;;;;;;;;;5051691;28;20052;-63
2021/01/10 11:21:35;;;;;;;8.73;6.43;;;;;;;;;;5054727;28;20049;-63
2021/01/10 11:24:01;;;;;;;7.43;5.60;;;;;;;;;;5065603;28;20064;-63
2021/01/10 11:26:27;;;;;;;3.92;3.42;;;;;;;;;;5064041;28;20410;-63
2021/01/10 11:28:52;;;;;;;4.88;3.95;;;;;;;;;;5069847;28;20058;-62
2021/01/10 11:31:18;;;;;;;3.80;3.03;;;;;;;;;;5074206;28;20382;-63
2021/01/10 11:33:44;;;;;;;5.40;4.30;;;;;;;;;;5067760;28;20027;-63
2021/01/10 11:36:10;;;;;;;6.93;5.35;;;;;;;;;;5054981;28;20013;-62
2021/01/10 11:38:35;;;;;;;5.72;4.32;;;;;;;;;;5061230;28;20040;-63
2021/01/10 11:41:10;;;;;;;7.32;5.95;;;;;;;;;;5064257;28;20024;-62
2021/01/10 11:43:36;;;;;;;8.90;7.35;;;;;;;;;;5072759;28;20021;-62
2021/01/10 11:46:05;;;;;;;9.57;6.63;;;;;;;;;;5070334;28;20501;-62
2021/01/10 11:48:31;;;;;;;10.30;7.72;;;;;;;;;;5056518;28;20024;-62
2021/01/10 11:50:56;;;;;;;10.65;8.13;;;;;;;;;;5065910;28;20494;-64
2021/01/10 11:53:21;;;;;;;9.63;7.88;;;;;;;;;;5054492;28;20020;-63
2021/01/10 11:55:46;;;;;;;11.30;8.70;;;;;;;;;;5053629;28;20063;-62
2021/01/10 11:58:12;;;;;;;9.52;6.93;;;;;;;;;;5053294;28;20477;-63
2021/01/10 12:00:38;;;;;;;10.60;8.02;;;;;;;;;;5051315;28;20005;-63
2021/01/10 12:03:03;;;;;;;9.30;7.65;;;;;;;;;;5054824;28;20135;-63
2021/01/10 12:05:28;;;;;;;8.30;6.40;;;;;;;;;;5053691;28;20052;-62
2021/01/10 12:07:53;;;;;;;10.82;7.65;;;;;;;;;;5055946;28;20486;-62
2021/01/10 12:10:19;;;;;;;10.73;9.18;;;;;;;;;;5057711;28;20029;-61
2021/01/10 12:12:44;;;;;;;9.82;7.63;;;;;;;;;;5055222;28;20651;-62
2021/01/10 12:15:09;;;;;;;7.03;5.68;;;;;;;;;;5066234;28;20028;-63
2021/01/10 12:17:35;;;;;;;9.73;7.32;;;;;;;;;;5053781;28;20021;-63
2021/01/10 12:20:00;;;;;;;8.27;6.65;;;;;;;;;;5062070;28;20008;-63
2021/01/10 12:22:25;;;;;;;8.18;6.68;;;;;;;;;;5069121;28;20078;-63
2021/01/10 12:24:50;;;;;;;9.02;6.45;;;;;;;;;;5069697;28;20047;-63
2021/01/10 12:27:16;;;;;;;7.22;5.78;;;;;;;;;;5073070;28;20036;-63
2021/01/10 12:29:41;;;;;;;6.90;5.70;;;;;;;;;;5069334;28;20008;-63
2021/01/10 12:32:06;;;;;;;8.40;6.47;;;;;;;;;;5072884;28;20055;-63
2021/01/10 12:34:31;;;;;;;7.80;6.07;;;;;;;;;;5060190;28;20113;-63
2021/01/10 12:36:58;;;;;;;7.68;6.25;;;;;;;;;;5072746;28;20033;-63
2021/01/10 12:39:23;;;;;;;9.77;7.43;;;;;;;;;;5063661;28;20009;-63
2021/01/10 12:41:48;;;;;;;10.18;6.97;;;;;;;;;;5059500;28;20013;-64
2021/01/10 12:44:14;;;;;;;11.88;7.53;;;;;;;;;;5052543;28;20013;-63
2021/01/10 12:46:39;;;;;;;10.85;8.38;;;;;;;;;;5059016;28;20052;-64
2021/01/10 12:49:05;;;;;;;14.90;10.05;;;;;;;;;;5067499;28;20028;-63
2021/01/10 12:51:39;;;;;;;15.82;11.55;;;;;;;;;;5057074;28;20020;-63
2021/01/10 12:54:05;;;;;;;17.08;11.65;;;;;;;;;;5059641;28;20107;-63
2021/01/10 12:56:30;;;;;;;17.17;11.45;;;;;;;;;;5065695;28;20099;-64
2021/01/10 12:58:55;;;;;;;16.52;12.27;;;;;;;;;;5066513;28;20308;-65
2021/01/10 13:01:20;;;;;;;18.10;12.55;;;;;;;;;;5071163;28;20017;-65
2021/01/10 13:03:45;;;;;;;17.45;12.13;;;;;;;;;;5055035;28;20425;-64
2021/01/10 13:06:11;;;;;;;20.98;13.57;;;;;;;;;;5053210;28;20160;-63
2021/01/10 13:08:36;;;;;;;18.15;12.23;;;;;;;;;;5057290;28;20028;-63
2021/01/10 13:11:01;;;;;;;21.98;13.77;;;;;;;;;;5070822;28;20035;-63
2021/01/10 13:13:27;;;;;;;17.92;12.88;;;;;;;;;;5062568;28;20047;-63
2021/01/10 13:15:52;;;;;;;19.70;13.05;;;;;;;;;;5064270;28;20029;-63
2021/01/10 13:18:17;;;;;;;18.17;13.00;;;;;;;;;;5064265;28;20033;-63
2021/01/10 13:20:43;;;;;;;20.05;12.60;;;;;;;;;;5052669;28;20053;-63
2021/01/10 13:23:08;;;;;;;20.98;12.18;;;;;;;;;;5054996;28;20092;-63
2021/01/10 13:25:33;;;;;;;19.77;12.53;;;;;;;;;;5061351;28;20320;-64
2021/01/10 13:27:59;;;;;;;20.23;11.70;;;;;;;;;;5059546;28;20475;-64
2021/01/10 13:30:24;;;;;;;20.03;11.93;;;;;;;;;;5060208;28;20021;-63
2021/01/10 13:32:49;;;;;;;19.33;12.63;;;;;;;;;;5061251;28;20024;-64
2021/01/10 13:35:14;;;;;;;20.00;12.07;;;;;;;;;;5057998;28;20027;-64
2021/01/10 13:37:40;;;;;;;18.23;11.90;;;;;;;;;;5056527;28;20025;-64
2021/01/10 13:40:06;;;;;;;18.40;12.13;;;;;;;;;;5055947;28;20013;-64
2021/01/10 13:42:31;;;;;;;18.40;12.30;;;;;;;;;;5058945;28;20360;-64
2021/01/10 13:44:56;;;;;;;17.40;11.20;;;;;;;;;;5051349;28;20423;-64
2021/01/10 13:47:21;;;;;;;19.13;12.00;;;;;;;;;;5056589;28;20490;-64
2021/01/10 13:49:47;;;;;;;19.20;12.00;;;;;;;;;;5052254;28;20021;-64
2021/01/10 13:52:14;;;;;;;18.43;10.67;;;;;;;;;;5055991;28;20044;-64
2021/01/10 13:54:39;;;;;;;18.90;11.57;;;;;;;;;;5054947;28;20017;-64
2021/01/10 13:57:04;;;;;;;18.07;11.33;;;;;;;;;;5057650;28;20024;-64
2021/01/10 13:59:30;;;;;;;20.10;11.90;;;;;;;;;;5060969;28;20017;-64
2021/01/10 14:01:55;;;;;;;18.33;11.20;;;;;;;;;;5055722;28;20017;-64
2021/01/10 14:04:21;;;;;;;20.53;11.73;;;;;;;;;;5055968;28;20459;-64
2021/01/10 14:06:46;;;;;;;16.70;10.37;;;;;;;;;;5059203;28;20028;-64
2021/01/10 14:09:12;;;;;;;17.37;11.23;;;;;;;;;;5059960;28;20027;-64
2021/01/10 14:11:40;;;;;;;19.07;11.33;;;;;;;;;;5075486;28;20033;-64
2021/01/10 14:14:05;;;;;;;15.80;9.23;;;;;;;;;;5061079;28;20066;-64
2021/01/10 14:16:34;;;;;;;14.47;9.33;;;;;;;;;;5054100;28;20449;-64
2021/01/10 14:18:59;;;;;;;14.93;9.33;;;;;;;;;;5054934;28;20472;-64
2021/01/10 14:21:25;;;;;;;14.30;9.33;;;;;;;;;;5061227;28;20024;-64